Arcola, PA

5:53 AM EDT on October 21, 2014 (GMT -0400)
Collegeville | Change Station
CLOSE
Current Station
Personal Weather Station
Location: Collegeville, PA
Elevation: 135 ft
Nearby Weather Stations

Elev 135 ft 40.18 °N, 75.45 °W | Updated 9 minutes ago

Overcast
Overcast
49.5 °F
Feels Like 50 °F
N
0.0
Wind Variable Wind from SSE
Gusts 0.0 mph

Today
High -- | Low -- °F
--% Chance of Precip.
Yesterday
High -- | Low -- °F
Precip. -- in
7:18 AM 6:13 PM
Waning Crescent, 6% visible
Pressure 29.87 in
Visibility 10.0 miles
Clouds Few 4300 ft
Mostly Cloudy 6500 ft
Overcast 8500 ft
Windchill 50 °F
Dew Point 48 °F
Humidity 95%
Rainfall 0.02 in
Snow Depth Not available.
UV 0 out of 12
Pollen .90 out of 12
Air Quality Not available.
Flu Activity Sporadic
METAR KPTW 210854Z AUTO 07003KT 10SM -RA FEW043 BKN065 OVC085 10/09 A2988 RMK AO2 RAE34B54 SLP115 P0000 60002 T01000089 58014

More Conditions Fewer Conditions

Pressure 29.87 in
Visibility 10.0 miles
Clouds Few 4300 ft
Mostly Cloudy 6500 ft
Overcast 8500 ft
Windchill 50 °F
Dew Point 48 °F
Humidity 95%
Rainfall 0.02 in
Snow Depth Not available.
UV 0 out of 12
Pollen .90 out of 12
Air Quality Not available.
Flu Activity Sporadic
METAR KPTW 210854Z AUTO 07003KT 10SM -RA FEW043 BKN065 OVC085 10/09 A2988 RMK AO2 RAE34B54 SLP115 P0000 60002 T01000089 58014

More Conditions Fewer Conditions

Nowcast | as of 5:12 am EDT on October 21, 2014

Showers...mostly light...will continue moving northeast through east central and northeast Pennsylvania early today as well as northern New Jersey.

×

10-Day Weather Forecast

Almanac

Astronomy

Oct. 21, 2014 Rise Set
Actual Time 7:18 AM EDT 6:13 PM EDT
Civil Twilight 6:51 AM EDT 6:40 PM EDT
Nautical Twilight 6:19 AM EDT 7:12 PM EDT
Astronomical Twilight 5:48 AM EDT 7:43 PM EDT
Moon 5:00 AM EDT 5:06 PM EDT
Length of Visible Light 11h 49m
Length of Day
10h 54m
Tomorrow will be 2m 29s shorter.
Waning Crescent, 6% of the Moon is Illuminated
Today
Waning Crescent
Oct 23
New
Oct 30
First Quarter
Nov 6
Full
Nov 14
Last Quarter

Today's Extremes

State Highs State Lows

Community

WunderPhotos

Upload Photos

1,763,619 photos uploaded!

Nearby

Snow Depth

Station Depth Elevation
No new snow has been reported.

Earthquake Activity

City Distance Mag. Time & Date
No recent earthquake activity has been reported nearby.
Minimum magnitude displayed is 2.5.

Coastal Water Temperatures

Place Temperature
No Stations Reporting

Nearby Weather Stations